Time;durP1;ratioP1;P1;durP2;ratioP2;P2;SDS_P1;SDS_P2;PMS_P1;PMS_P2;Temp;Humidity;BMP_temperature;BMP_pressure;BME280_temperature;BME280_humidity;BME280_pressure;Samples;Min_cycle;Max_cycle;Signal;HPM_P1;HPM_P2
2021/05/16 00:01:15;254277.00;0.85;439.31;0.00;0.00;0.62;;;;;15.00;1.00;;;;;;2269002;61;1915;-88
2021/05/16 00:03:41;170255.00;0.57;294.71;0.00;0.00;0.62;;;;;15.20;1.00;;;;;;2268902;61;1721;-88
2021/05/16 00:06:08;280257.00;0.93;483.98;0.00;0.00;0.62;;;;;15.40;1.00;;;;;;2268990;61;1124;-88
2021/05/16 00:08:35;248062.00;0.83;428.62;0.00;0.00;0.62;;;;;15.50;1.00;;;;;;2268987;61;1061;-88
2021/05/16 00:11:02;70211.00;0.23;122.13;0.00;0.00;0.62;;;;;15.40;1.00;;;;;;2269009;61;1053;-87
2021/05/16 00:13:30;179693.00;0.60;310.96;0.00;0.00;0.62;;;;;15.40;1.00;;;;;;2268891;61;1581;-88
2021/05/16 00:15:56;190337.00;0.63;329.29;0.00;0.00;0.62;;;;;15.30;1.00;;;;;;2268913;61;1496;-89
2021/05/16 00:18:23;212484.00;0.71;367.41;0.00;0.00;0.62;;;;;15.50;1.00;;;;;;2268821;61;1235;-88
2021/05/16 00:20:49;74482.00;0.25;129.50;0.00;0.00;0.62;;;;;15.50;1.00;;;;;;2268945;61;1998;-88
2021/05/16 00:23:20;63607.00;0.21;110.71;0.00;0.00;0.62;;;;;15.60;1.00;;;;;;2268856;61;1411;-88
2021/05/16 00:25:55;346103.00;1.15;597.16;0.00;0.00;0.62;;;;;15.40;1.00;;;;;;2268614;61;1678;-88
2021/05/16 00:28:24;191360.00;0.64;331.05;0.00;0.00;0.62;;;;;15.00;1.00;;;;;;2268843;61;1634;-87
2021/05/16 00:30:53;196986.00;0.66;340.74;0.00;0.00;0.62;;;;;14.70;1.00;;;;;;2268815;61;1595;-87
2021/05/16 00:33:21;112606.00;0.38;195.33;0.00;0.00;0.62;;;;;14.70;1.00;;;;;;2268806;61;1760;-87
2021/05/16 00:35:47;325269.00;1.08;561.35;0.00;0.00;0.62;;;;;15.00;1.00;;;;;;2268792;61;1608;-88
2021/05/16 00:38:14;309846.00;1.03;534.84;0.00;0.00;0.62;;;;;15.40;1.00;;;;;;2268819;61;1674;-87
2021/05/16 00:40:43;369025.00;1.23;636.56;40534.00;0.14;70.81;;;;;15.50;1.00;;;;;;2268768;61;1612;-86
2021/05/16 00:43:10;213856.00;0.71;369.77;0.00;0.00;0.62;;;;;16.00;1.00;;;;;;2268893;61;1462;-88
2021/05/16 00:45:36;132496.00;0.44;229.63;0.00;0.00;0.62;;;;;16.20;1.00;;;;;;2268851;61;1001;-87
2021/05/16 00:48:05;116775328.00;389.25;64502376.00;0.00;0.00;0.62;;;;;16.20;1.00;;;;;;2268862;61;1313;-89
2021/05/16 00:50:35;119450976.00;398.17;69042736.00;82947.00;0.28;144.13;;;;;16.30;1.00;;;;;;2268804;61;973;-88
2021/05/16 00:53:01;897047.00;2.99;1550.93;223006.00;0.74;385.52;;;;;16.60;1.00;;;;;;2268801;61;1344;-88
2021/05/16 00:55:29;397429.00;1.32;685.39;81502.00;0.27;141.63;;;;;16.70;1.00;;;;;;2268813;61;1123;-87
2021/05/16 00:57:55;379005.00;1.26;653.72;77688.00;0.26;135.04;;;;;16.80;1.00;;;;;;2268690;61;1687;-88
2021/05/16 01:00:26;393835.00;1.31;679.21;92734.00;0.31;161.03;;;;;16.80;1.00;;;;;;2268740;61;1129;-88
2021/05/16 01:02:52;277971.00;0.93;480.05;85955.00;0.29;149.32;;;;;16.70;1.00;;;;;;2268674;61;2027;-87
2021/05/16 01:05:20;416898.00;1.39;718.86;79121.00;0.26;137.52;;;;;16.70;1.00;;;;;;2268788;61;886;-87
2021/05/16 01:07:47;472840.00;1.58;815.08;91252.00;0.30;158.47;;;;;16.40;1.00;;;;;;2268612;61;1087;-87
2021/05/16 01:10:15;399486.00;1.33;688.92;83309.00;0.28;144.75;;;;;16.00;1.00;;;;;;2268731;61;1064;-87
2021/05/16 01:12:44;532791.00;1.78;918.30;71918.00;0.24;125.07;;;;;15.90;1.00;;;;;;2268775;61;1641;-88
2021/05/16 01:15:14;259246.00;0.86;447.85;78568.00;0.26;136.56;;;;;15.70;1.00;;;;;;2256419;61;943;-88
2021/05/16 01:17:41;305814.00;1.02;527.91;82106.00;0.27;142.67;;;;;15.60;1.00;;;;;;2256363;61;1117;-88
2021/05/16 01:20:13;506500.00;1.69;873.02;78406.00;0.26;136.28;;;;;15.80;1.00;;;;;;2256336;61;1669;-89
2021/05/16 01:22:51;429583.00;1.43;740.67;83542.00;0.28;145.16;;;;;15.90;1.00;;;;;;2256369;61;2003;-88
2021/05/16 01:25:18;505859.00;1.69;871.91;115419.00;0.38;200.18;;;;;16.10;1.00;;;;;;2256300;61;1138;-87
2021/05/16 01:27:57;;;;;;;;;;;;;;;;;;;;;
2021/05/16 01:30:30;589477.00;1.96;1016.05;43093.00;0.14;75.24;;;;;16.10;1.00;;;;;;2260321;61;1627;-87
2021/05/16 01:32:57;632097.00;2.11;1089.67;0.00;0.00;0.62;;;;;15.90;1.00;;;;;;2260274;61;1659;-87
2021/05/16 01:35:24;370146.00;1.23;638.49;0.00;0.00;0.62;;;;;16.00;1.00;;;;;;2260327;61;1137;-87
2021/05/16 01:37:52;421612.00;1.41;726.96;22789.00;0.08;40.10;;;;;16.20;1.00;;;;;;2260359;61;1118;-88
2021/05/16 01:40:21;442274.00;1.47;762.49;0.00;0.00;0.62;;;;;16.30;1.00;;;;;;2260275;61;1114;-88
2021/05/16 01:42:49;815362.00;2.72;1407.93;24966.00;0.08;43.87;;;;;16.20;1.00;;;;;;2260264;61;2007;-87
2021/05/16 01:45:18;325619.00;1.09;561.96;22948.00;0.08;40.37;;;;;16.40;1.00;;;;;;2260189;61;1534;-87
2021/05/16 01:47:44;281082.00;0.94;485.40;0.00;0.00;0.62;;;;;16.10;1.00;;;;;;2262709;61;1168;-87
2021/05/16 01:50:14;381679.00;1.27;658.31;0.00;0.00;0.62;;;;;16.30;1.00;;;;;;2268651;61;924;-88
2021/05/16 01:52:42;248308.00;0.83;429.04;0.00;0.00;0.62;;;;;16.50;1.00;;;;;;2268606;61;1383;-88
2021/05/16 01:55:12;437422.00;1.46;754.15;0.00;0.00;0.62;;;;;16.60;1.00;;;;;;2268619;61;1080;-88
2021/05/16 01:57:40;356048.00;1.19;614.26;0.00;0.00;0.62;;;;;16.70;1.00;;;;;;2268632;61;951;-89
2021/05/16 02:00:09;208947.00;0.70;361.32;0.00;0.00;0.62;;;;;16.70;1.00;;;;;;2268647;61;1070;-89
2021/05/16 02:02:35;148666.00;0.50;257.51;0.00;0.00;0.62;;;;;16.70;1.00;;;;;;2268526;61;1911;-88
2021/05/16 02:05:02;385927.00;1.29;665.61;0.00;0.00;0.62;;;;;16.70;1.00;;;;;;2268555;61;1510;-87
2021/05/16 02:07:31;433174.00;1.44;746.84;0.00;0.00;0.62;;;;;16.80;1.00;;;;;;2268675;61;951;-88
2021/05/16 02:09:58;321983.00;1.07;555.71;0.00;0.00;0.62;;;;;16.90;1.00;;;;;;2268590;61;1694;-88
2021/05/16 02:12:27;393326.00;1.31;678.33;0.00;0.00;0.62;;;;;16.90;1.00;;;;;;2268678;61;1023;-89
2021/05/16 02:14:53;214346.00;0.71;370.61;0.00;0.00;0.62;;;;;16.50;1.00;;;;;;2268543;61;1303;-88
2021/05/16 02:17:20;460613.00;1.54;794.04;68650.00;0.23;119.43;;;;;16.50;1.00;;;;;;2268641;61;1022;-88
2021/05/16 02:19:47;331545.00;1.11;572.14;0.00;0.00;0.62;;;;;16.00;1.00;;;;;;2268776;61;989;-87
2021/05/16 02:22:15;496611.00;1.66;855.99;86799.00;0.29;150.78;;;;;15.90;1.00;;;;;;2268790;61;1919;-87
2021/05/16 02:24:43;372275.00;1.24;642.15;0.00;0.00;0.62;;;;;15.80;1.00;;;;;;2268870;61;1397;-88
2021/05/16 02:27:09;431214.00;1.44;743.47;0.00;0.00;0.62;;;;;15.90;1.00;;;;;;2268793;61;933;-87
2021/05/16 02:29:37;483301.00;1.61;833.08;0.00;0.00;0.62;;;;;16.20;1.00;;;;;;2268699;61;922;-87
2021/05/16 02:32:07;522187.00;1.74;900.03;41209.00;0.14;71.98;;;;;16.50;1.00;;;;;;2268667;61;1135;-88
2021/05/16 02:34:34;515657.00;1.72;888.78;0.00;0.00;0.62;;;;;16.50;1.00;;;;;;2268559;61;1342;-87
2021/05/16 02:37:01;494369.00;1.65;852.13;0.00;0.00;0.62;;;;;16.80;1.00;;;;;;2268606;61;1701;-88
2021/05/16 02:39:28;163535.00;0.55;283.13;0.00;0.00;0.62;;;;;16.80;1.00;;;;;;2268608;61;1119;-88
2021/05/16 02:41:54;426884.00;1.42;736.03;54663.00;0.18;95.25;;;;;17.00;1.00;;;;;;2268577;61;1931;-88
2021/05/16 02:44:21;374975.00;1.25;646.79;0.00;0.00;0.62;;;;;16.80;1.00;;;;;;2268636;61;1344;-87
2021/05/16 02:46:48;490117.00;1.63;844.81;0.00;0.00;0.62;;;;;17.00;1.00;;;;;;2268626;61;1115;-88
2021/05/16 02:49:14;240664.00;0.80;415.89;0.00;0.00;0.62;;;;;17.10;1.00;;;;;;2268611;61;1144;-88
2021/05/16 02:51:41;302721.00;1.01;522.60;0.00;0.00;0.62;;;;;17.10;1.00;;;;;;2268514;61;1061;-88
2021/05/16 02:54:07;226741.00;0.76;391.94;0.00;0.00;0.62;;;;;17.10;1.00;;;;;;2268465;61;1282;-88
2021/05/16 02:56:34;243953.00;0.81;421.55;0.00;0.00;0.62;;;;;17.10;1.00;;;;;;2268546;61;919;-89
2021/05/16 02:59:01;168161.00;0.56;291.10;0.00;0.00;0.62;;;;;17.00;1.00;;;;;;2268514;61;1199;-89
2021/05/16 03:01:28;192880.00;0.64;333.67;0.00;0.00;0.62;;;;;17.00;1.00;;;;;;2268547;61;1922;-87
2021/05/16 03:03:55;296822.00;0.99;512.46;0.00;0.00;0.62;;;;;16.90;1.00;;;;;;2268549;61;1371;-88
2021/05/16 03:06:21;404846.00;1.35;698.14;2220.00;0.01;4.47;;;;;16.80;1.00;;;;;;2268644;61;966;-88
2021/05/16 03:08:48;198026.00;0.66;342.53;0.00;0.00;0.62;;;;;16.30;1.00;;;;;;2268591;61;1111;-89
2021/05/16 03:11:15;201784.00;0.67;348.99;0.00;0.00;0.62;;;;;16.30;1.00;;;;;;2268597;61;1120;-87
2021/05/16 03:13:41;222784.00;0.74;385.13;0.00;0.00;0.62;;;;;16.40;1.00;;;;;;2268587;61;1282;-87
2021/05/16 03:16:08;187331.00;0.62;324.11;9423.00;0.03;16.95;;;;;16.30;1.00;;;;;;2268677;61;1152;-87
2021/05/16 03:18:35;382700.00;1.28;660.07;0.00;0.00;0.62;;;;;16.30;1.00;;;;;;2268635;61;1228;-87
2021/05/16 03:21:02;186278.00;0.62;322.30;0.00;0.00;0.62;;;;;16.50;1.00;;;;;;2268740;61;2006;-87
2021/05/16 03:23:28;35782.00;0.12;62.59;0.00;0.00;0.62;;;;;16.60;1.00;;;;;;2261631;61;1501;-87
2021/05/16 03:25:58;79195.00;0.26;137.65;0.00;0.00;0.62;;;;;16.90;1.00;;;;;;2268517;61;1764;-88
2021/05/16 03:28:24;194666.00;0.65;336.74;0.00;0.00;0.62;;;;;16.80;1.00;;;;;;2261594;61;942;-87
2021/05/16 03:30:51;191618.00;0.64;331.49;0.00;0.00;0.62;;;;;16.70;1.00;;;;;;2261428;61;994;-87
2021/05/16 03:35:46;146853.00;0.49;254.38;0.00;0.00;0.62;;;;;16.70;1.00;;;;;;2269045;61;1342;-87
2021/05/16 03:38:13;31422.00;0.10;55.04;0.00;0.00;0.62;;;;;16.80;1.00;;;;;;2261396;61;1260;-86
2021/05/16 03:40:39;0.00;0.00;0.62;0.00;0.00;0.62;;;;;16.90;1.00;;;;;;2268309;61;1152;-86
2021/05/16 03:43:06;33221.00;0.11;58.16;0.00;0.00;0.62;;;;;16.80;1.00;;;;;;2268263;61;2009;-86
2021/05/16 03:45:34;154825.00;0.52;268.12;0.00;0.00;0.62;;;;;16.80;1.00;;;;;;2268497;61;929;-87
2021/05/16 03:48:01;13027.00;0.04;23.19;0.00;0.00;0.62;;;;;16.80;1.00;;;;;;2268446;61;1060;-87
2021/05/16 03:50:27;179748.00;0.60;311.06;30941.00;0.10;54.21;;;;;16.80;1.00;;;;;;2258060;61;1156;-87
2021/05/16 03:52:54;8559.00;0.03;15.45;0.00;0.00;0.62;;;;;16.80;1.00;;;;;;2258100;61;1113;-86
2021/05/16 03:55:21;31694.00;0.11;55.52;0.00;0.00;0.62;;;;;17.00;1.00;;;;;;2268411;61;1336;-86
2021/05/16 03:57:49;49088.00;0.16;85.61;0.00;0.00;0.62;;;;;17.00;1.00;;;;;;2259649;61;971;-86
2021/05/16 04:00:18;0.00;0.00;0.62;0.00;0.00;0.62;;;;;16.90;1.00;;;;;;2260003;61;967;-85
2021/05/16 04:02:45;48388.00;0.16;84.40;0.00;0.00;0.62;;;;;16.70;1.00;;;;;;2256573;61;2014;-85
2021/05/16 04:05:13;40665.00;0.14;71.04;0.00;0.00;0.62;;;;;16.60;1.00;;;;;;2259939;61;1453;-86
2021/05/16 04:07:39;55002.00;0.18;95.84;0.00;0.00;0.62;;;;;16.40;1.00;;;;;;2260013;61;1057;-86
2021/05/16 04:10:07;42810.00;0.14;74.75;0.00;0.00;0.62;;;;;16.50;1.00;;;;;;2259933;61;1063;-87
2021/05/16 04:12:34;0.00;0.00;0.62;0.00;0.00;0.62;;;;;16.40;1.00;;;;;;2256565;61;1024;-85
2021/05/16 04:15:01;20576.00;0.07;36.27;0.00;0.00;0.62;;;;;16.50;1.00;;;;;;2261180;61;1498;-84
2021/05/16 04:17:27;13476.00;0.04;23.97;0.00;0.00;0.62;;;;;16.50;1.00;;;;;;2255884;61;1082;-85
2021/05/16 04:19:54;0.00;0.00;0.62;0.00;0.00;0.62;;;;;16.30;1.00;;;;;;2255953;61;1042;-85
2021/05/16 04:22:20;0.00;0.00;0.62;0.00;0.00;0.62;;;;;16.20;1.00;;;;;;2249329;61;2007;-85
2021/05/16 04:24:47;0.00;0.00;0.62;0.00;0.00;0.62;;;;;16.40;1.00;;;;;;2246006;61;1379;-86
2021/05/16 04:27:13;0.00;0.00;0.62;0.00;0.00;0.62;;;;;16.40;1.00;;;;;;2246101;61;981;-86
2021/05/16 04:29:40;80345.00;0.27;139.63;0.00;0.00;0.62;;;;;16.40;1.00;;;;;;2249272;61;994;-85
2021/05/16 04:32:07;0.00;0.00;0.62;0.00;0.00;0.62;;;;;16.30;1.00;;;;;;2243913;62;1026;-86
2021/05/16 04:34:33;0.00;0.00;0.62;0.00;0.00;0.62;;;;;16.40;1.00;;;;;;2237152;62;1385;-86
2021/05/16 04:37:00;0.00;0.00;0.62;0.00;0.00;0.62;;;;;16.40;1.00;;;;;;2247785;61;982;-84
2021/05/16 04:39:26;200360.00;0.67;346.54;0.00;0.00;0.62;;;;;16.50;1.00;;;;;;2247831;61;1199;-86
2021/05/16 04:41:52;0.00;0.00;0.62;0.00;0.00;0.62;;;;;16.10;1.00;;;;;;2247820;61;1916;-85
2021/05/16 04:44:19;0.00;0.00;0.62;0.00;0.00;0.62;;;;;15.90;1.00;;;;;;2248379;61;1449;-85
2021/05/16 04:46:46;10250.00;0.03;18.38;0.00;0.00;0.62;;;;;16.00;1.00;;;;;;2248591;61;1043;-85
2021/05/16 04:49:14;0.00;0.00;0.62;0.00;0.00;0.62;;;;;16.10;1.00;;;;;;2249269;61;1010;-86
2021/05/16 04:51:41;0.00;0.00;0.62;0.00;0.00;0.62;;;;;15.80;1.00;;;;;;2257930;61;1152;-86
2021/05/16 04:54:08;1707.00;0.01;3.58;0.00;0.00;0.62;;;;;15.70;1.00;;;;;;2261928;61;1460;-87
2021/05/16 04:56:34;0.00;0.00;0.62;0.00;0.00;0.62;;;;;15.80;1.00;;;;;;2256572;61;982;-86
2021/05/16 04:59:02;0.00;0.00;0.62;0.00;0.00;0.62;;;;;16.00;1.00;;;;;;2253079;61;1094;-88
2021/05/16 05:01:28;0.00;0.00;0.62;0.00;0.00;0.62;;;;;16.10;1.00;;;;;;2249842;61;2007;-87
2021/05/16 05:03:56;23776.00;0.08;41.81;0.00;0.00;0.62;;;;;15.80;1.00;;;;;;2253109;61;1464;-87
2021/05/16 05:06:23;0.00;0.00;0.62;0.00;0.00;0.62;;;;;16.10;1.00;;;;;;2246627;61;1129;-87
2021/05/16 05:08:49;0.00;0.00;0.62;0.00;0.00;0.62;;;;;16.30;1.00;;;;;;2256474;61;1057;-87
2021/05/16 05:11:16;5706.00;0.02;10.51;0.00;0.00;0.62;;;;;16.20;1.00;;;;;;2249772;61;1145;-87
2021/05/16 05:13:42;0.00;0.00;0.62;0.00;0.00;0.62;;;;;16.10;1.00;;;;;;2257979;61;1443;-87
2021/05/16 05:16:09;0.00;0.00;0.62;0.00;0.00;0.62;;;;;15.40;1.00;;;;;;2261708;61;1017;-86
2021/05/16 05:18:35;203469.00;0.68;351.89;20384.00;0.07;35.94;;;;;15.30;1.00;;;;;;2265094;61;1109;-87
2021/05/16 05:21:03;0.00;0.00;0.62;0.00;0.00;0.62;;;;;14.90;1.00;;;;;;2261738;61;1214;-88
2021/05/16 05:23:29;0.00;0.00;0.62;0.00;0.00;0.62;;;;;15.00;1.00;;;;;;2265028;61;1928;-88
2021/05/16 05:25:56;0.00;0.00;0.62;0.00;0.00;0.62;;;;;15.40;1.00;;;;;;2261654;61;1070;-88
2021/05/16 05:28:23;255970.00;0.85;442.22;28291.00;0.09;49.62;;;;;15.50;1.00;;;;;;2261678;61;1164;-87
2021/05/16 05:30:49;10023.00;0.03;17.99;0.00;0.00;0.62;;;;;15.80;1.00;;;;;;2261684;61;1020;-88
2021/05/16 05:33:16;0.00;0.00;0.62;0.00;0.00;0.62;;;;;16.10;1.00;;;;;;2268831;61;1454;-87
2021/05/16 05:35:42;53938.00;0.18;94.00;0.00;0.00;0.62;;;;;16.20;1.00;;;;;;2260181;61;1120;-87
2021/05/16 05:38:12;160528.00;0.54;277.95;0.00;0.00;0.62;;;;;16.30;1.00;;;;;;2260287;61;1152;-86
2021/05/16 05:40:38;31041.00;0.10;54.38;0.00;0.00;0.62;;;;;16.50;1.00;;;;;;2260208;61;915;-86
2021/05/16 05:43:05;27203.00;0.09;47.74;0.00;0.00;0.62;;;;;16.70;1.00;;;;;;2252074;61;1924;-86
2021/05/16 05:45:31;115556.00;0.39;200.42;0.00;0.00;0.62;;;;;16.70;1.00;;;;;;2245597;61;1161;-88
2021/05/16 05:47:58;237894.00;0.79;411.13;0.00;0.00;0.62;;;;;16.60;1.00;;;;;;2248205;61;1208;-87
2021/05/16 05:50:24;79714.00;0.27;138.54;0.00;0.00;0.62;;;;;16.60;1.00;;;;;;2244105;62;987;-87
2021/05/16 05:52:51;128520.00;0.43;222.78;0.00;0.00;0.62;;;;;16.60;1.00;;;;;;2240897;62;1269;-88
2021/05/16 05:55:18;180519.00;0.60;312.38;0.00;0.00;0.62;;;;;16.80;1.00;;;;;;2243822;62;1362;-87
2021/05/16 05:57:44;227966.00;0.76;394.05;0.00;0.00;0.62;;;;;17.20;1.00;;;;;;2240552;62;1130;-87
2021/05/16 06:00:12;100506.00;0.34;174.45;0.00;0.00;0.62;;;;;17.70;1.00;;;;;;2241833;61;1162;-88
2021/05/16 06:02:38;46645.00;0.16;81.38;0.00;0.00;0.62;;;;;17.80;1.00;;;;;;2249466;61;1924;-87
2021/05/16 06:05:06;168654.00;0.56;291.95;0.00;0.00;0.62;;;;;17.40;1.00;;;;;;2246693;61;1468;-87
2021/05/16 06:07:33;61821.00;0.21;107.62;0.00;0.00;0.62;;;;;17.30;1.00;;;;;;2260948;61;1036;-87
2021/05/16 06:09:59;105411.00;0.35;182.91;0.00;0.00;0.62;;;;;17.00;1.00;;;;;;2268574;61;911;-87
2021/05/16 06:12:26;108318.00;0.36;187.93;0.00;0.00;0.62;;;;;17.20;1.00;;;;;;2264851;61;990;-87
2021/05/16 06:14:54;146728.00;0.49;254.17;0.00;0.00;0.62;;;;;17.50;1.00;;;;;;2268450;61;1426;-87
2021/05/16 06:17:20;9660.00;0.03;17.36;0.00;0.00;0.62;;;;;17.70;1.00;;;;;;2261446;61;1052;-85
2021/05/16 06:19:46;138889.00;0.46;240.66;0.00;0.00;0.62;;;;;19.30;1.00;;;;;;2261446;61;1161;-85
2021/05/16 06:22:13;170719.00;0.57;295.51;0.00;0.00;0.62;;;;;19.90;1.00;;;;;;2268579;61;1990;-85
2021/05/16 06:24:40;62987.00;0.21;109.64;0.00;0.00;0.62;;;;;19.90;1.00;;;;;;2259997;61;1310;-85
2021/05/16 06:27:06;200118.00;0.67;346.13;0.00;0.00;0.62;;;;;19.60;1.00;;;;;;2260019;61;1177;-85
2021/05/16 06:29:34;177264.00;0.59;306.78;0.00;0.00;0.62;;;;;18.70;1.00;;;;;;2260258;61;1176;-85
2021/05/16 06:32:00;133111.00;0.44;230.69;0.00;0.00;0.62;;;;;18.00;1.00;;;;;;2256749;61;991;-85
2021/05/16 06:34:27;300818.00;1.00;519.33;0.00;0.00;0.62;;;;;17.30;1.00;;;;;;2256698;61;1436;-85
2021/05/16 06:36:54;270797.00;0.90;467.71;0.00;0.00;0.62;;;;;16.80;1.00;;;;;;2256008;61;1029;-85
2021/05/16 06:39:21;61951.00;0.21;107.85;0.00;0.00;0.62;;;;;16.40;1.00;;;;;;2249550;61;1042;-85
2021/05/16 06:41:47;173915.00;0.58;301.01;0.00;0.00;0.62;;;;;16.50;1.00;;;;;;2248564;61;1923;-86
2021/05/16 06:44:14;156674.00;0.52;271.31;0.00;0.00;0.62;;;;;16.00;1.00;;;;;;2245575;61;1420;-85
2021/05/16 06:46:41;186862.00;0.62;323.31;4101.00;0.01;7.73;;;;;15.80;1.00;;;;;;2248853;61;1118;-85
2021/05/16 06:49:08;238769.00;0.80;412.63;0.00;0.00;0.62;;;;;16.00;1.00;;;;;;2252054;61;977;-85
2021/05/16 06:51:35;74954.00;0.25;130.32;0.00;0.00;0.62;;;;;16.40;1.00;;;;;;2248804;61;1042;-86
2021/05/16 06:54:02;450456.00;1.50;776.57;30088.00;0.10;52.74;;;;;17.20;1.00;;;;;;2248519;61;1418;-86
2021/05/16 06:56:29;143325.00;0.48;248.30;0.00;0.00;0.62;;;;;17.40;1.00;;;;;;2248738;61;1096;-86
2021/05/16 06:58:55;161796.00;0.54;280.13;0.00;0.00;0.62;;;;;17.60;1.00;;;;;;2248498;61;1042;-86
2021/05/16 07:01:21;162893.00;0.54;282.02;0.00;0.00;0.62;;;;;17.20;1.00;;;;;;2251967;61;2026;-87
2021/05/16 07:03:49;313247.00;1.04;540.69;0.00;0.00;0.62;;;;;17.70;1.00;;;;;;2252062;61;1376;-86
2021/05/16 07:06:15;325346.00;1.08;561.49;0.00;0.00;0.62;;;;;17.80;1.00;;;;;;2252882;61;1049;-86
2021/05/16 07:08:42;35521.00;0.12;62.14;0.00;0.00;0.62;;;;;17.80;1.00;;;;;;2260068;61;915;-86
2021/05/16 07:11:09;250882.00;0.84;433.47;0.00;0.00;0.62;;;;;17.80;1.00;;;;;;2260067;61;1043;-86
2021/05/16 07:13:35;141698.00;0.47;245.50;0.00;0.00;0.62;;;;;17.50;1.00;;;;;;2260030;61;1306;-86
2021/05/16 07:16:01;177303.00;0.59;306.84;0.00;0.00;0.62;;;;;17.20;1.00;;;;;;2261012;61;1109;-86
2021/05/16 07:18:28;65902.00;0.22;114.68;0.00;0.00;0.62;;;;;17.10;1.00;;;;;;2261537;61;1089;-86
2021/05/16 07:20:55;123688.00;0.41;214.44;0.00;0.00;0.62;;;;;16.90;1.00;;;;;;2261555;61;1065;-87
2021/05/16 07:23:22;462311.00;1.54;796.96;36674.00;0.12;64.13;;;;;17.90;1.00;;;;;;2261483;61;2056;-87
2021/05/16 07:25:48;141849.00;0.47;245.76;0.00;0.00;0.62;;;;;18.90;1.00;;;;;;2264808;61;1065;-86
2021/05/16 07:28:14;203192.00;0.68;351.42;0.00;0.00;0.62;;;;;18.50;1.00;;;;;;2268561;61;1032;-87
2021/05/16 07:30:41;172107.00;0.57;297.90;0.00;0.00;0.62;;;;;19.50;1.00;;;;;;2268505;61;1047;-87
2021/05/16 07:33:08;288862.00;0.96;498.77;0.00;0.00;0.62;;;;;20.40;1.00;;;;;;2255949;61;1408;-87
2021/05/16 07:35:34;332538.00;1.11;573.85;0.00;0.00;0.62;;;;;19.90;1.00;;;;;;2249442;61;1035;-86
2021/05/16 07:38:02;291124.00;0.97;502.66;0.00;0.00;0.62;;;;;20.00;1.00;;;;;;2256079;61;1049;-86
2021/05/16 07:40:28;191603.00;0.64;331.47;0.00;0.00;0.62;;;;;20.50;1.00;;;;;;2249431;61;1126;-85
2021/05/16 07:42:55;259078.00;0.86;447.56;0.00;0.00;0.62;;;;;20.80;1.00;;;;;;2249415;61;1916;-86
2021/05/16 07:45:24;264248.00;0.88;456.45;0.00;0.00;0.62;;;;;21.90;1.00;;;;;;2256070;61;1421;-87
2021/05/16 07:47:51;204509.00;0.68;353.68;0.00;0.00;0.62;;;;;23.10;1.00;;;;;;2256008;61;1034;-86
2021/05/16 07:50:17;100933.00;0.34;175.18;0.00;0.00;0.62;;;;;23.20;1.00;;;;;;2257679;61;1205;-88
2021/05/16 07:52:44;463505.00;1.55;799.01;36837.00;0.12;64.42;;;;;23.40;1.00;;;;;;2261481;61;1005;-88
2021/05/16 07:55:12;285735.00;0.95;493.40;0.00;0.00;0.62;;;;;23.20;1.00;;;;;;2268415;61;1432;-89
2021/05/16 07:57:38;246210.00;0.82;425.43;0.00;0.00;0.62;;;;;23.90;1.00;;;;;;2258132;61;1156;-88
2021/05/16 08:00:10;49593.00;0.17;86.48;0.00;0.00;0.62;;;;;24.50;1.00;;;;;;2268428;61;1049;-86
2021/05/16 08:02:36;18284.00;0.06;32.30;0.00;0.00;0.62;;;;;25.10;1.00;;;;;;2268355;61;1987;-87
2021/05/16 08:05:03;49337.00;0.16;86.04;0.00;0.00;0.62;;;;;25.10;1.00;;;;;;2268374;61;1330;-87
2021/05/16 08:07:30;49117.00;0.16;85.66;0.00;0.00;0.62;;;;;25.00;1.00;;;;;;2264652;61;971;-86
2021/05/16 08:09:56;75004.00;0.25;130.41;0.00;0.00;0.62;;;;;23.70;1.00;;;;;;2268374;61;1218;-87
2021/05/16 08:12:23;127000.00;0.42;220.16;0.00;0.00;0.62;;;;;22.90;1.00;;;;;;2268307;61;1003;-86
2021/05/16 08:14:50;179873.00;0.60;311.27;0.00;0.00;0.62;;;;;22.00;1.00;;;;;;2268202;61;1320;-84
2021/05/16 08:17:16;161548.00;0.54;279.71;0.00;0.00;0.62;;;;;21.80;1.00;;;;;;2268414;61;1118;-83
2021/05/16 08:19:43;310115.00;1.03;535.31;15858.00;0.05;28.10;;;;;20.20;1.00;;;;;;2269049;61;1060;-85
2021/05/16 08:22:10;272912.00;0.91;471.35;0.00;0.00;0.62;;;;;19.30;1.00;;;;;;2269046;61;1944;-86
2021/05/16 08:24:37;181881.00;0.61;314.73;0.00;0.00;0.62;;;;;18.90;1.00;;;;;;2269012;61;1464;-85
2021/05/16 08:27:06;194671.00;0.65;336.75;0.00;0.00;0.62;;;;;19.50;1.00;;;;;;2269029;61;934;-87
2021/05/16 08:29:36;148849.00;0.50;257.82;0.00;0.00;0.62;;;;;20.00;1.00;;;;;;2269041;61;1025;-87
2021/05/16 08:32:03;171587.00;0.57;297.00;0.00;0.00;0.62;;;;;20.00;1.00;;;;;;2269054;61;912;-86
2021/05/16 08:34:30;109880.00;0.37;190.62;0.00;0.00;0.62;;;;;20.20;1.00;;;;;;2268927;61;1685;-85
2021/05/16 08:36:56;168639.00;0.56;291.92;0.00;0.00;0.62;;;;;20.30;1.00;;;;;;2268995;61;1096;-86
2021/05/16 08:39:23;173989.00;0.58;301.14;0.00;0.00;0.62;;;;;20.90;1.00;;;;;;2268976;61;1011;-85
2021/05/16 08:41:50;111142.00;0.37;192.80;0.00;0.00;0.62;;;;;21.80;1.00;;;;;;2261931;61;1923;-88
2021/05/16 08:44:18;194567.00;0.65;336.57;0.00;0.00;0.62;;;;;22.80;1.00;;;;;;2269005;61;1380;-88
2021/05/16 08:46:46;134726.00;0.45;233.48;0.00;0.00;0.62;;;;;23.20;1.00;;;;;;2261969;61;975;-88
2021/05/16 08:49:12;121562.00;0.41;210.78;0.00;0.00;0.62;;;;;23.50;1.00;;;;;;2262004;61;1040;-89
2021/05/16 08:51:44;315797.00;1.05;545.07;57279.00;0.19;99.77;;;;;23.80;1.00;;;;;;2262010;61;921;-88
2021/05/16 08:54:11;116001.00;0.39;201.18;0.00;0.00;0.62;;;;;23.20;1.00;;;;;;2261863;61;1452;-88
2021/05/16 08:56:37;236310.00;0.79;408.40;54059.00;0.18;94.21;;;;;22.70;1.00;;;;;;2261954;61;998;-87
2021/05/16 08:59:04;305431.00;1.02;527.26;0.00;0.00;0.62;;;;;22.30;1.00;;;;;;2261914;61;1046;-88
2021/05/16 09:01:36;190677.00;0.64;329.87;0.00;0.00;0.62;;;;;23.10;1.00;;;;;;2261910;61;1054;-88
2021/05/16 09:04:28;57862.00;0.19;100.78;0.00;0.00;0.62;;;;;23.10;1.00;;;;;;2268869;61;1447;-88
2021/05/16 09:06:56;66278.00;0.22;115.33;0.00;0.00;0.62;;;;;23.00;1.00;;;;;;2258570;61;962;-86
2021/05/16 09:09:27;44057.00;0.15;76.91;0.00;0.00;0.62;;;;;23.20;1.00;;;;;;2268937;61;1103;-86
2021/05/16 09:11:58;27221.00;0.09;47.77;0.00;0.00;0.62;;;;;22.20;1.00;;;;;;2261944;61;1080;-87
2021/05/16 09:14:44;136743.00;0.46;236.96;0.00;0.00;0.62;;;;;21.80;1.00;;;;;;2261793;61;1415;-88
2021/05/16 09:17:28;67622.00;0.23;117.65;0.00;0.00;0.62;;;;;21.40;1.00;;;;;;2268814;61;954;-87
2021/05/16 09:19:59;33226.00;0.11;58.17;0.00;0.00;0.62;;;;;20.90;1.00;;;;;;2261848;61;978;-87
2021/05/16 09:25:05;56913.00;0.19;99.14;0.00;0.00;0.62;;;;;20.60;1.00;;;;;;2269787;61;1418;-88
2021/05/16 09:27:34;39370.00;0.13;68.80;0.00;0.00;0.62;;;;;20.60;1.00;;;;;;2264344;61;990;-87
2021/05/16 09:30:00;57101.00;0.19;99.46;0.00;0.00;0.62;;;;;21.00;1.00;;;;;;2260753;61;963;-86
2021/05/16 09:32:27;100514.00;0.34;174.46;0.00;0.00;0.62;;;;;21.20;1.00;;;;;;2260326;61;1037;-87
2021/05/16 09:47:19;579108.00;1.93;998.16;0.00;0.00;0.62;;;;;21.50;1.00;;;;;;2267251;61;1005;-90
2021/05/16 10:37:40;1302516.00;4.34;2276.71;0.00;0.00;0.62;;;;;21.70;1.00;;;;;;2264961;61;963;-92
2021/05/16 11:20:22;1038990.00;3.46;1801.65;0.00;0.00;0.62;;;;;23.40;1.00;;;;;;2498686;55;2020;31
2021/05/16 11:50:45;1144364.00;3.81;1989.95;0.00;0.00;0.62;;;;;22.90;1.00;;;;;;2266605;61;1001;-89
2021/05/16 11:55:44;1429624.00;4.77;2511.38;76689.00;0.26;133.32;;;;;22.60;1.00;;;;;;2267375;61;1174;-90
2021/05/16 12:00:41;917604.00;3.06;1587.06;77787.00;0.26;135.21;;;;;23.10;1.00;;;;;;2267208;61;1308;-92
2021/05/16 12:38:10;726824.00;2.42;1253.79;0.00;0.00;0.62;;;;;22.80;1.00;;;;;;2267038;61;959;-89
2021/05/16 14:32:14;790759.00;2.64;1365.01;0.00;0.00;0.62;;;;;18.40;1.00;;;;;;2270802;61;1309;-90
2021/05/16 14:37:12;621845.00;2.07;1071.95;0.00;0.00;0.62;;;;;18.80;1.00;;;;;;2270732;61;1291;-89
2021/05/16 14:39:39;73416.00;0.24;127.66;0.00;0.00;0.62;;;;;18.70;1.00;;;;;;2269218;61;897;-88
2021/05/16 14:47:04;985182.00;3.28;1706.24;0.00;0.00;0.62;;;;;17.50;1.00;;;;;;2267178;61;938;-88
2021/05/16 14:52:01;550105.00;1.83;948.14;0.00;0.00;0.62;;;;;17.70;1.00;;;;;;2267015;61;1309;-91
2021/05/16 14:54:28;191578.00;0.64;331.43;1768.00;0.01;3.68;;;;;17.90;1.00;;;;;;2252458;61;1278;-90
2021/05/16 15:19:08;802154.00;2.67;1384.88;0.00;0.00;0.62;;;;;20.20;1.00;;;;;;2379039;41;1964;-89
2021/05/16 15:29:00;1049666.00;3.50;1820.64;0.00;0.00;0.62;;;;;20.20;1.00;;;;;;2266853;61;1336;-88